createdAt,value
2018-03-28T00:01:19.136Z,23.33
2018-03-28T00:03:46.894Z,17.90
2018-03-28T00:06:15.402Z,21.00
2018-03-28T00:08:43.212Z,30.33
2018-03-28T00:11:10.982Z,20.53
2018-03-28T00:13:38.799Z,24.23
2018-03-28T00:16:06.516Z,29.37
2018-03-28T00:18:34.298Z,27.10
2018-03-28T00:21:01.988Z,33.47
2018-03-28T00:23:29.717Z,28.67
2018-03-28T00:25:57.425Z,30.60
2018-03-28T00:28:25.213Z,32.47
2018-03-28T00:30:53.007Z,35.80
2018-03-28T00:33:20.703Z,33.27
2018-03-28T00:35:49.184Z,39.13
2018-03-28T00:38:16.958Z,31.03
2018-03-28T00:40:44.746Z,35.00
2018-03-28T00:43:12.519Z,33.63
2018-03-28T00:45:40.311Z,33.80
2018-03-28T00:48:08.128Z,32.37
2018-03-28T00:50:35.835Z,37.77
2018-03-28T00:53:03.601Z,35.50
2018-03-28T00:55:31.420Z,34.90
2018-03-28T00:57:59.171Z,35.33
2018-03-28T01:00:26.947Z,34.97
2018-03-28T01:02:54.758Z,37.07
2018-03-28T01:05:22.539Z,33.57
2018-03-28T01:07:50.298Z,33.87
2018-03-28T01:10:18.034Z,33.97
2018-03-28T01:12:45.850Z,35.70
2018-03-28T01:15:13.572Z,34.10
2018-03-28T01:17:41.278Z,32.67
2018-03-28T01:20:09.197Z,34.37
2018-03-28T01:22:37.023Z,31.63
2018-03-28T01:25:04.750Z,36.73
2018-03-28T01:27:32.490Z,35.30
2018-03-28T01:30:01.104Z,33.73
2018-03-28T01:32:28.798Z,34.90
2018-03-28T01:34:56.572Z,38.40
2018-03-28T01:37:24.396Z,32.73
2018-03-28T01:39:52.195Z,34.03
2018-03-28T01:42:19.914Z,37.30
2018-03-28T01:44:47.671Z,39.03
2018-03-28T01:47:15.476Z,33.03
2018-03-28T01:49:43.180Z,36.53
2018-03-28T01:52:10.887Z,30.67
2018-03-28T01:54:38.760Z,42.50
2018-03-28T01:57:06.529Z,36.87
2018-03-28T01:59:34.304Z,33.63
2018-03-28T02:02:02.055Z,33.00
2018-03-28T02:04:29.751Z,35.33
2018-03-28T02:06:57.625Z,31.90
2018-03-28T02:09:25.383Z,35.40
2018-03-28T02:11:53.155Z,40.57
2018-03-28T02:14:20.940Z,35.10
2018-03-28T02:16:48.694Z,39.17
2018-03-28T02:19:16.512Z,34.67
2018-03-28T02:21:45.014Z,46.50
2018-03-28T02:24:12.711Z,35.17
2018-03-28T02:26:40.452Z,36.10
2018-03-28T02:29:08.282Z,41.17
2018-03-28T02:31:36.869Z,39.20
2018-03-28T02:34:05.410Z,36.40
2018-03-28T02:36:33.110Z,37.00
2018-03-28T02:39:00.925Z,41.50
2018-03-28T02:41:28.686Z,35.00
2018-03-28T02:43:56.444Z,37.63
2018-03-28T02:46:24.224Z,31.90
2018-03-28T02:48:51.968Z,37.60
2018-03-28T02:51:19.814Z,39.13
2018-03-28T02:53:47.611Z,34.53
2018-03-28T02:56:15.321Z,32.77
2018-03-28T02:58:43.113Z,38.77
2018-03-28T03:01:10.918Z,34.07
2018-03-28T03:03:38.704Z,38.90
2018-03-28T03:06:06.540Z,41.87
2018-03-28T03:08:35.096Z,34.27
2018-03-28T03:11:02.801Z,38.90
2018-03-28T03:13:30.551Z,33.70
2018-03-28T03:15:58.369Z,39.00
2018-03-28T03:18:26.139Z,37.70
2018-03-28T03:20:54.105Z,36.13
2018-03-28T03:23:21.858Z,37.67
2018-03-28T03:25:49.641Z,38.90
2018-03-28T03:28:17.391Z,36.83
2018-03-28T03:30:45.263Z,35.63
2018-03-28T03:33:12.999Z,40.13
2018-03-28T03:35:40.770Z,35.73
2018-03-28T03:38:08.533Z,42.60
2018-03-28T03:40:36.302Z,37.00
2018-03-28T03:43:04.032Z,36.50
2018-03-28T03:45:31.789Z,37.43
2018-03-28T03:47:59.491Z,35.23
2018-03-28T03:50:27.245Z,35.93
2018-03-28T03:52:55.751Z,35.93
2018-03-28T03:55:23.530Z,33.27
2018-03-28T03:57:51.322Z,35.90
2018-03-28T04:00:19.134Z,35.63
2018-03-28T04:02:46.872Z,38.20
2018-03-28T04:05:14.667Z,37.17
2018-03-28T04:07:42.372Z,40.03
2018-03-28T04:10:10.108Z,37.67
2018-03-28T04:12:37.870Z,36.00
2018-03-28T04:15:05.658Z,37.80
2018-03-28T04:17:33.493Z,38.83
2018-03-28T04:20:01.264Z,35.23
2018-03-28T04:22:29.092Z,36.97
2018-03-28T04:24:56.933Z,36.33
2018-03-28T04:27:24.679Z,31.87
2018-03-28T04:29:53.148Z,36.93
2018-03-28T04:32:20.930Z,31.27
2018-03-28T04:34:49.419Z,32.30
2018-03-28T04:37:17.242Z,36.50
2018-03-28T04:39:45.008Z,35.70
2018-03-28T04:42:13.138Z,34.20
2018-03-28T04:44:40.851Z,39.00
2018-03-28T04:47:08.677Z,34.77
2018-03-28T04:49:36.454Z,37.23
2018-03-28T04:52:04.173Z,33.50
2018-03-28T04:54:32.710Z,28.93
2018-03-28T04:57:00.492Z,28.63
2018-03-28T04:59:28.291Z,29.60
2018-03-28T05:01:56.046Z,32.10
2018-03-28T05:04:23.827Z,31.43
2018-03-28T05:09:27.920Z,28.50
2018-03-28T05:11:58.149Z,33.47
2018-03-28T05:14:26.063Z,35.47
2018-03-28T05:16:54.566Z,35.40
2018-03-28T05:19:22.293Z,37.57
2018-03-28T05:21:51.283Z,35.20
2018-03-28T05:24:19.544Z,37.17
2018-03-28T05:26:47.261Z,35.80
2018-03-28T05:29:15.052Z,41.97
2018-03-28T05:31:42.813Z,52.50
2018-03-28T05:34:10.516Z,39.43
2018-03-28T05:36:38.300Z,45.80
2018-03-28T05:39:06.848Z,48.40
2018-03-28T05:41:34.593Z,40.93
2018-03-28T05:44:02.302Z,44.30
2018-03-28T05:46:30.050Z,48.70
2018-03-28T05:48:57.843Z,42.37
2018-03-28T05:51:25.624Z,39.90
2018-03-28T05:53:54.178Z,44.10
2018-03-28T05:56:21.896Z,41.50
2018-03-28T05:58:49.628Z,46.00
2018-03-28T06:01:17.371Z,45.47
2018-03-28T06:03:45.103Z,46.33
2018-03-28T06:06:12.914Z,39.73
2018-03-28T06:08:40.622Z,45.50
2018-03-28T06:11:09.120Z,49.50
2018-03-28T06:13:36.815Z,41.33
2018-03-28T06:16:04.567Z,52.30
2018-03-28T06:18:32.303Z,39.13
2018-03-28T06:21:00.825Z,41.33
2018-03-28T06:23:28.613Z,54.53
2018-03-28T06:25:56.349Z,45.97
2018-03-28T06:28:24.104Z,43.00
2018-03-28T06:30:51.812Z,43.17
2018-03-28T06:33:19.586Z,38.20
2018-03-28T06:35:47.340Z,51.43
2018-03-28T06:38:15.083Z,38.20
2018-03-28T06:40:42.842Z,40.83
2018-03-28T06:43:10.616Z,44.67
2018-03-28T06:45:38.418Z,45.30
2018-03-28T06:48:06.168Z,47.87
2018-03-28T06:50:33.945Z,53.40
2018-03-28T06:53:01.719Z,58.33
2018-03-28T06:55:29.502Z,59.10
2018-03-28T06:57:57.259Z,59.53
2018-03-28T07:00:25.050Z,61.43
2018-03-28T07:02:52.842Z,62.73
2018-03-28T07:05:20.625Z,66.50
2018-03-28T07:07:48.400Z,62.37
2018-03-28T07:10:16.237Z,71.20
2018-03-28T07:12:43.958Z,57.50
2018-03-28T07:15:11.763Z,68.90
2018-03-28T07:17:39.515Z,60.07
2018-03-28T07:20:07.238Z,59.70
2018-03-28T07:22:34.976Z,59.13
2018-03-28T07:25:02.732Z,64.63
2018-03-28T07:27:30.537Z,61.10
2018-03-28T07:29:58.272Z,59.87
2018-03-28T07:32:26.080Z,58.33
2018-03-28T07:34:54.584Z,59.40
2018-03-28T07:37:22.316Z,60.20
2018-03-28T07:39:50.043Z,52.50
2018-03-28T07:42:17.797Z,61.33
2018-03-28T07:44:45.522Z,58.00
2018-03-28T07:47:13.259Z,65.20
2018-03-28T07:49:41.068Z,59.33
2018-03-28T07:52:08.804Z,66.03
2018-03-28T07:54:36.587Z,62.10
2018-03-28T07:57:04.349Z,69.80
2018-03-28T07:59:32.132Z,63.23
2018-03-28T08:01:59.939Z,57.50
2018-03-28T08:04:27.662Z,53.53
2018-03-28T08:06:55.414Z,70.53
2018-03-28T08:09:23.127Z,66.83
2018-03-28T08:11:50.904Z,58.20
2018-03-28T08:14:18.623Z,67.80
2018-03-28T08:16:46.345Z,68.17
2018-03-28T08:19:14.131Z,63.10
2018-03-28T08:21:41.880Z,60.77
2018-03-28T08:24:09.706Z,60.70
2018-03-28T08:26:37.490Z,60.70
2018-03-28T08:29:05.224Z,66.53
2018-03-28T08:31:33.032Z,64.33
2018-03-28T08:34:00.880Z,70.20
2018-03-28T08:36:28.601Z,70.23
2018-03-28T08:38:56.424Z,70.27
2018-03-28T08:41:24.210Z,72.20
2018-03-28T08:43:51.948Z,90.47
2018-03-28T08:46:19.677Z,64.50
2018-03-28T08:48:47.431Z,63.50
2018-03-28T08:51:15.196Z,65.27
2018-03-28T08:53:42.982Z,80.00
2018-03-28T08:56:10.788Z,64.73
2018-03-28T08:58:38.549Z,69.20
2018-03-28T09:01:06.360Z,54.73
2018-03-28T09:03:34.101Z,58.30
2018-03-28T09:06:01.870Z,66.73
2018-03-28T09:08:29.629Z,65.50
2018-03-28T09:10:57.330Z,62.30
2018-03-28T09:13:25.053Z,58.33
2018-03-28T09:15:52.807Z,57.13
2018-03-28T09:18:20.551Z,63.10
2018-03-28T09:20:48.365Z,57.60
2018-03-28T09:23:16.089Z,56.63
2018-03-28T09:25:43.819Z,52.80
2018-03-28T09:28:11.621Z,56.33
2018-03-28T09:30:39.339Z,55.43
2018-03-28T09:33:07.176Z,60.47
2018-03-28T09:35:34.931Z,46.67
2018-03-28T09:38:02.719Z,57.30
2018-03-28T09:40:30.505Z,49.50
2018-03-28T09:42:58.266Z,54.70
2018-03-28T09:45:26.055Z,44.87
2018-03-28T09:47:53.855Z,51.37
2018-03-28T09:50:21.637Z,52.10
2018-03-28T09:52:49.396Z,48.17
2018-03-28T09:55:17.118Z,46.40
2018-03-28T09:57:45.004Z,41.67
2018-03-28T10:00:27.342Z,46.47
2018-03-28T10:03:00.710Z,40.97
2018-03-28T10:05:34.191Z,43.70
2018-03-28T10:08:01.929Z,38.07
2018-03-28T10:10:29.724Z,29.60
2018-03-28T10:12:57.554Z,35.07
2018-03-28T10:15:25.290Z,35.80
2018-03-28T10:18:04.460Z,33.73
2018-03-28T10:20:32.274Z,34.77
2018-03-28T10:23:00.884Z,30.83
2018-03-28T10:25:28.676Z,30.60
2018-03-28T10:27:56.398Z,30.30
2018-03-28T10:30:24.135Z,28.47
2018-03-28T10:32:52.764Z,29.33
2018-03-28T10:35:21.022Z,26.43
2018-03-28T10:37:48.744Z,26.77
2018-03-28T10:40:16.648Z,28.33
2018-03-28T10:42:44.441Z,28.63
2018-03-28T10:45:12.157Z,25.07
2018-03-28T10:47:39.905Z,27.90
2018-03-28T10:50:08.897Z,27.00
2018-03-28T10:52:37.550Z,28.03
2018-03-28T10:55:07.607Z,22.70
2018-03-28T10:57:35.690Z,26.90
2018-03-28T11:00:05.592Z,28.13
2018-03-28T11:02:34.815Z,24.60
2018-03-28T11:05:04.266Z,22.73
2018-03-28T11:07:32.856Z,28.13
2018-03-28T11:10:01.500Z,24.43
2018-03-28T11:12:31.189Z,22.90
2018-03-28T11:15:00.194Z,24.03
2018-03-28T11:17:28.661Z,21.70
2018-03-28T11:19:57.271Z,20.13
2018-03-28T11:22:26.653Z,29.57
2018-03-28T11:24:56.475Z,26.50
2018-03-28T11:27:26.096Z,23.17
2018-03-28T11:29:55.949Z,28.70
2018-03-28T11:32:26.284Z,27.27
2018-03-28T11:34:55.308Z,25.63
2018-03-28T11:37:25.025Z,29.37
2018-03-28T11:39:54.251Z,30.50
2018-03-28T11:42:23.029Z,29.40
2018-03-28T11:44:52.268Z,28.17
2018-03-28T11:47:20.759Z,30.50
2018-03-28T11:49:48.550Z,23.97
2018-03-28T11:52:16.707Z,24.93
2018-03-28T11:54:45.436Z,27.57
2018-03-28T11:57:15.942Z,23.57
2018-03-28T11:59:44.793Z,24.80
2018-03-28T12:02:14.502Z,26.83
2018-03-28T12:04:43.350Z,25.33
2018-03-28T12:07:12.185Z,29.67
2018-03-28T12:09:41.123Z,34.53
2018-03-28T12:12:09.764Z,38.77
2018-03-28T12:14:37.514Z,27.27
2018-03-28T12:17:05.289Z,31.50
2018-03-28T12:19:33.112Z,27.50
2018-03-28T12:22:01.008Z,30.63
2018-03-28T12:24:28.769Z,29.83
2018-03-28T12:26:56.497Z,23.90
2018-03-28T12:29:24.228Z,22.30
2018-03-28T12:31:52.044Z,24.80
2018-03-28T12:34:19.771Z,26.60
2018-03-28T12:36:48.601Z,28.83
2018-03-28T12:39:16.307Z,25.30
2018-03-28T12:41:44.053Z,23.17
2018-03-28T12:44:12.007Z,25.60
2018-03-28T12:46:39.762Z,30.77
2018-03-28T12:49:07.524Z,35.87
2018-03-28T12:51:35.310Z,29.70
2018-03-28T12:54:03.169Z,28.03
2018-03-28T12:56:31.622Z,31.70
2018-03-28T12:58:59.413Z,25.50
2018-03-28T13:01:27.207Z,25.43
2018-03-28T13:03:54.969Z,30.77
2018-03-28T13:06:22.895Z,25.93
2018-03-28T13:08:51.418Z,24.00
2018-03-28T13:11:19.167Z,23.00
2018-03-28T13:13:46.925Z,25.97
2018-03-28T13:16:14.761Z,27.03
2018-03-28T13:18:42.611Z,32.10
2018-03-28T13:21:10.362Z,24.60
2018-03-28T13:23:38.123Z,28.57
2018-03-28T13:26:05.931Z,27.77
2018-03-28T13:28:33.784Z,26.20
2018-03-28T13:31:01.571Z,23.97
2018-03-28T13:33:29.310Z,35.93
2018-03-28T13:35:57.010Z,37.43
2018-03-28T13:38:25.564Z,36.93
2018-03-28T13:40:53.415Z,35.80
2018-03-28T13:43:21.233Z,34.37
2018-03-28T13:45:50.338Z,32.33
2018-03-28T13:48:18.125Z,31.63
2018-03-28T13:50:45.868Z,33.50
2018-03-28T13:53:13.666Z,34.77
2018-03-28T13:55:41.427Z,29.60
2018-03-28T13:58:09.187Z,30.17
2018-03-28T14:00:36.944Z,31.20
2018-03-28T14:03:04.726Z,25.77
2018-03-28T14:05:32.439Z,29.93
2018-03-28T14:08:00.167Z,29.10
2018-03-28T14:10:27.933Z,26.27
2018-03-28T14:12:55.710Z,33.20
2018-03-28T14:15:23.504Z,30.90
2018-03-28T14:17:51.219Z,37.23
2018-03-28T14:20:19.019Z,32.10
2018-03-28T14:22:46.911Z,28.90
2018-03-28T14:25:14.747Z,33.77
2018-03-28T14:27:42.530Z,29.00
2018-03-28T14:30:10.342Z,30.03
2018-03-28T14:32:38.836Z,28.80
2018-03-28T14:35:06.635Z,29.13
2018-03-28T14:37:34.384Z,27.10
2018-03-28T14:40:02.158Z,26.30
2018-03-28T14:42:30.147Z,30.90
2018-03-28T14:44:58.003Z,29.90
2018-03-28T14:47:25.775Z,34.67
2018-03-28T14:49:53.570Z,29.53
2018-03-28T14:52:21.384Z,29.57
2018-03-28T14:54:49.275Z,29.60
2018-03-28T14:57:17.109Z,34.17
2018-03-28T14:59:45.684Z,27.40
2018-03-28T15:02:14.313Z,27.73
2018-03-28T15:04:42.038Z,28.87
2018-03-28T15:07:09.946Z,31.00
2018-03-28T15:09:37.769Z,24.27
2018-03-28T15:12:05.633Z,32.70
2018-03-28T15:14:35.058Z,29.50
2018-03-28T15:17:03.496Z,26.90
2018-03-28T15:19:31.918Z,28.37
2018-03-28T15:22:01.285Z,30.00
2018-03-28T15:24:29.402Z,26.10
2018-03-28T15:26:59.000Z,26.57
2018-03-28T15:29:28.335Z,30.47
2018-03-28T15:32:00.128Z,25.50
2018-03-28T15:34:28.506Z,28.67
2018-03-28T15:37:01.059Z,28.00
2018-03-28T15:39:29.895Z,21.87
2018-03-28T15:41:59.416Z,25.20
2018-03-28T15:44:30.279Z,32.70
2018-03-28T15:46:59.638Z,33.70
2018-03-28T15:49:30.435Z,28.40
2018-03-28T15:51:59.995Z,30.37
2018-03-28T15:54:30.082Z,27.37
2018-03-28T15:56:58.648Z,30.47
2018-03-28T15:59:27.889Z,29.33
2018-03-28T16:01:56.176Z,30.10
2018-03-28T16:04:24.043Z,33.37
2018-03-28T16:06:51.757Z,36.73
2018-03-28T16:09:19.522Z,28.93
2018-03-28T16:11:47.302Z,28.23
2018-03-28T16:14:15.067Z,30.27
2018-03-28T16:16:42.872Z,30.50
2018-03-28T16:19:12.384Z,29.93
2018-03-28T16:21:40.291Z,29.43
2018-03-28T16:24:08.995Z,30.83
2018-03-28T16:26:36.803Z,27.00
2018-03-28T16:29:04.668Z,26.73
2018-03-28T16:31:32.671Z,26.07
2018-03-28T16:34:01.707Z,24.10
2018-03-28T16:36:29.442Z,23.90
2018-03-28T16:38:58.329Z,25.37
2018-03-28T16:41:26.906Z,29.43
2018-03-28T16:43:54.640Z,25.97
2018-03-28T16:46:22.367Z,27.30
2018-03-28T16:48:50.138Z,25.67
2018-03-28T16:51:17.987Z,27.63
2018-03-28T16:53:45.817Z,31.03
2018-03-28T16:56:13.575Z,26.83
2018-03-28T16:58:42.126Z,27.77
2018-03-28T17:01:09.893Z,28.40
2018-03-28T17:03:38.044Z,23.80
2018-03-28T17:06:05.791Z,27.50
2018-03-28T17:08:33.790Z,29.33
2018-03-28T17:11:02.069Z,38.00
2018-03-28T17:13:29.954Z,34.13
2018-03-28T17:16:07.428Z,21.13
2018-03-28T17:18:35.778Z,21.67
2018-03-28T17:21:03.575Z,27.40
2018-03-28T17:23:31.428Z,28.60
2018-03-28T17:25:59.177Z,24.90
2018-03-28T17:28:27.024Z,17.50
2018-03-28T17:30:54.797Z,10.90
2018-03-28T17:33:22.732Z,11.87
2018-03-28T17:35:50.672Z,11.07
2018-03-28T17:38:18.377Z,5.00
2018-03-28T17:40:46.367Z,4.67
2018-03-28T17:43:14.132Z,6.50
2018-03-28T17:45:41.864Z,3.60
2018-03-28T17:48:09.730Z,3.33
2018-03-28T17:50:38.230Z,7.20
2018-03-28T17:53:06.000Z,4.73
2018-03-28T17:55:33.843Z,10.60
2018-03-28T17:58:01.574Z,31.53
2018-03-28T18:00:29.420Z,21.97
2018-03-28T18:02:57.192Z,20.83
2018-03-28T18:05:25.068Z,22.10
2018-03-28T18:07:53.039Z,24.20
2018-03-28T18:10:20.861Z,24.50
2018-03-28T18:12:49.913Z,10.87
2018-03-28T18:15:17.768Z,12.03
2018-03-28T18:17:45.724Z,18.53
2018-03-28T18:20:13.505Z,20.20
2018-03-28T18:22:42.900Z,22.97
2018-03-28T18:25:13.772Z,25.10
2018-03-28T18:27:50.762Z,25.63
2018-03-28T18:30:18.769Z,27.37
2018-03-28T18:32:51.000Z,23.37
2018-03-28T18:35:18.742Z,25.53
2018-03-28T18:37:46.635Z,27.00
2018-03-28T18:40:14.398Z,22.07
2018-03-28T18:42:48.250Z,23.13
2018-03-28T18:45:16.842Z,30.70
2018-03-28T18:47:45.167Z,20.20
2018-03-28T18:50:14.834Z,22.90
2018-03-28T18:52:42.675Z,26.50
2018-03-28T18:55:10.627Z,23.63
2018-03-28T18:57:38.385Z,23.80
2018-03-28T19:00:06.197Z,21.37
2018-03-28T19:02:35.038Z,29.00
2018-03-28T19:05:03.662Z,17.13
2018-03-28T19:07:31.578Z,20.73
2018-03-28T19:09:59.924Z,17.53
2018-03-28T19:12:34.866Z,22.10
2018-03-28T19:15:03.663Z,20.60
2018-03-28T19:17:33.946Z,19.73
2018-03-28T19:20:02.456Z,11.53
2018-03-28T19:22:30.950Z,17.80
2018-03-28T19:25:04.898Z,13.03
2018-03-28T19:27:34.479Z,7.90
2018-03-28T19:30:12.109Z,8.20
2018-03-28T19:32:48.531Z,8.37
2018-03-28T19:35:17.569Z,8.70
2018-03-28T19:37:49.261Z,12.33
2018-03-28T19:40:21.189Z,14.70
2018-03-28T19:42:51.540Z,19.40
2018-03-28T19:45:24.910Z,12.77
2018-03-28T19:47:55.300Z,17.57
2018-03-28T19:50:30.181Z,19.10
2018-03-28T19:52:59.140Z,20.23
2018-03-28T19:55:27.461Z,21.63
2018-03-28T19:57:55.278Z,25.90
2018-03-28T20:00:23.659Z,30.70
2018-03-28T20:02:51.396Z,30.77
2018-03-28T20:05:24.915Z,39.43
2018-03-28T20:07:54.222Z,42.23
2018-03-28T20:10:21.991Z,40.00
2018-03-28T20:12:49.842Z,36.53
2018-03-28T20:15:20.043Z,39.13
2018-03-28T20:17:48.207Z,39.17
2018-03-28T20:20:16.037Z,42.00
2018-03-28T20:22:44.854Z,42.23
2018-03-28T20:25:12.936Z,39.57
2018-03-28T20:27:43.127Z,41.00
2018-03-28T20:30:13.307Z,41.63
2018-03-28T20:32:41.257Z,36.10
2018-03-28T20:35:08.973Z,39.27
2018-03-28T20:37:36.810Z,49.73
2018-03-28T20:40:04.654Z,42.97
2018-03-28T20:42:32.410Z,42.87
2018-03-28T20:45:00.155Z,42.83
2018-03-28T20:47:28.755Z,40.20
2018-03-28T20:49:56.480Z,44.77
2018-03-28T20:52:24.203Z,48.77
2018-03-28T20:54:52.011Z,41.20
2018-03-28T20:57:19.800Z,37.70
2018-03-28T20:59:47.497Z,40.70
2018-03-28T21:02:15.318Z,41.83
2018-03-28T21:04:43.086Z,43.10
2018-03-28T21:07:10.787Z,39.00
2018-03-28T21:09:38.574Z,43.00
2018-03-28T21:12:06.349Z,39.80
2018-03-28T21:14:34.494Z,44.40
2018-03-28T21:17:02.257Z,44.70
2018-03-28T21:19:30.060Z,41.60
2018-03-28T21:21:57.862Z,48.63
2018-03-28T21:24:25.562Z,41.60
2018-03-28T21:26:53.454Z,40.67
2018-03-28T21:29:21.301Z,45.03
2018-03-28T21:31:49.075Z,43.50
2018-03-28T21:34:16.806Z,36.93
2018-03-28T21:36:44.608Z,43.40
2018-03-28T21:39:12.374Z,51.53
2018-03-28T21:41:40.131Z,41.67
2018-03-28T21:44:07.875Z,44.10
2018-03-28T21:46:35.636Z,44.00
2018-03-28T21:49:03.421Z,39.57
2018-03-28T21:51:31.238Z,40.97
2018-03-28T21:53:58.957Z,39.60
2018-03-28T21:56:26.746Z,36.20
2018-03-28T21:58:54.491Z,45.17
2018-03-28T22:01:22.313Z,40.73
2018-03-28T22:03:50.082Z,37.87
2018-03-28T22:06:17.782Z,44.40
2018-03-28T22:08:45.575Z,52.10
2018-03-28T22:11:13.368Z,48.73
2018-03-28T22:13:41.135Z,49.10
2018-03-28T22:16:08.852Z,48.20
2018-03-28T22:18:36.646Z,48.13
2018-03-28T22:21:05.350Z,41.43
2018-03-28T22:23:33.107Z,51.73
2018-03-28T22:26:00.867Z,48.00
2018-03-28T22:28:28.676Z,49.00
2018-03-28T22:30:56.421Z,47.37
2018-03-28T22:33:24.140Z,50.90
2018-03-28T22:35:51.926Z,51.57
2018-03-28T22:38:19.631Z,52.50
2018-03-28T22:40:47.417Z,53.97
2018-03-28T22:43:15.245Z,41.90
2018-03-28T22:45:43.016Z,48.73
2018-03-28T22:48:11.024Z,50.67
2018-03-28T22:50:38.783Z,51.70
2018-03-28T22:53:06.582Z,48.40
2018-03-28T22:55:34.370Z,50.53
2018-03-28T22:58:02.917Z,29.37
2018-03-28T23:00:30.641Z,28.00
2018-03-28T23:02:58.431Z,22.67
2018-03-28T23:05:26.244Z,14.10
2018-03-28T23:07:54.771Z,10.30
2018-03-28T23:10:22.521Z,12.00
2018-03-28T23:12:50.291Z,8.80
2018-03-28T23:15:18.827Z,16.23
2018-03-28T23:17:46.590Z,11.27
2018-03-28T23:20:14.362Z,7.77
2018-03-28T23:22:42.112Z,7.10
2018-03-28T23:25:09.882Z,5.73
2018-03-28T23:27:37.699Z,5.47
2018-03-28T23:30:05.502Z,8.07
2018-03-28T23:32:33.261Z,8.73
2018-03-28T23:35:00.994Z,6.17
2018-03-28T23:37:28.832Z,5.90
2018-03-28T23:39:56.604Z,6.20
2018-03-28T23:42:24.326Z,4.40
2018-03-28T23:44:52.097Z,6.80
2018-03-28T23:47:19.801Z,5.73
2018-03-28T23:49:47.618Z,3.80
2018-03-28T23:52:15.337Z,8.37
2018-03-28T23:54:43.118Z,7.90
2018-03-28T23:57:11.624Z,7.87
2018-03-28T23:59:39.342Z,7.87
